CheckWX is a tool to help pilots better visualize weather data.  It is not intended as a substitute for an official pre-flight weather briefing.

08:12:17 UTC

KPVU TAF
Provo Municipal Airport
Provo, Utah, USA
KPVU 280530Z 2806/2906 VRB05KT P6SM VCSH BKN060 BKN120 FM281800 28005KT P6SM BKN060 FM290400 15004KT P6SM SCT100

Mar-28@
06:00 UTC

Mar-28 @ 06:00 UTC

Mar-28@
18:00 UTC

Mar-28 @ 18:00 UTC

TAF KPVU 280530Z 2806/2906 VRB05KT P6SM VCSH BKN060 BKN120
Wind
  • Variable at 5 KTS
Conditions
Area Showers
Cloud Levels
  • Broken at 6,000' AGL
  • Broken at 12,000' AGL

Mar-28@
18:00 UTC

Mar-28 @ 18:00 UTC

Mar-29@
04:00 UTC

Mar-29 @ 04:00 UTC

FM281800 28005KT P6SM BKN060

From

From Standard forecast or significant change

Wind
  • 280° at 5 KTS
Cloud Levels
  • Broken at 6,000' AGL

Mar-29@
04:00 UTC

Mar-29 @ 04:00 UTC

Mar-29@
06:00 UTC

Mar-29 @ 06:00 UTC

FM290400 15004KT P6SM SCT100

From

From Standard forecast or significant change

Wind
  • 150° at 4 KTS
Cloud Levels
  • Scattered at 10,000' AGL